createdAt,value
2022-12-18T00:01:55.655Z,97119.00
2022-12-18T00:04:30.061Z,97135.84
2022-12-18T00:07:02.948Z,97132.91
2022-12-18T00:09:40.317Z,97140.56
2022-12-18T00:14:48.689Z,97135.78
2022-12-18T00:17:22.040Z,97129.94
2022-12-18T00:19:56.418Z,97148.41
2022-12-18T00:22:29.544Z,97144.97
2022-12-18T00:25:02.387Z,97153.91
2022-12-18T00:27:36.470Z,97148.66
2022-12-18T00:30:10.418Z,97148.41
2022-12-18T00:32:43.291Z,97146.81
2022-12-18T00:35:17.704Z,97153.19
2022-12-18T00:37:50.602Z,97157.13
2022-12-18T00:40:23.514Z,97159.28
2022-12-18T00:42:58.289Z,97160.63
2022-12-18T00:45:33.090Z,97157.47
2022-12-18T00:48:06.661Z,97143.25
2022-12-18T00:50:40.853Z,97148.03
2022-12-18T00:53:14.147Z,97146.19
2022-12-18T00:55:48.311Z,97130.13
2022-12-18T00:58:21.151Z,97145.41
2022-12-18T01:00:54.117Z,97154.69
2022-12-18T01:03:27.172Z,97151.25
2022-12-18T01:06:01.464Z,97170.00
2022-12-18T01:08:34.499Z,97181.13
2022-12-18T01:11:10.426Z,97172.13
2022-12-18T01:13:44.472Z,97174.50
2022-12-18T01:16:18.740Z,97170.84
2022-12-18T01:18:54.590Z,97163.97
2022-12-18T01:21:29.008Z,97169.25
2022-12-18T01:24:01.817Z,97177.94
2022-12-18T01:26:34.637Z,97177.94
2022-12-18T01:29:07.432Z,97189.06
2022-12-18T01:31:40.441Z,97194.09
2022-12-18T01:34:13.282Z,97195.91
2022-12-18T01:36:47.463Z,97197.28
2022-12-18T01:39:20.851Z,97195.16
2022-12-18T01:42:10.383Z,97192.50
2022-12-18T01:44:59.080Z,97197.53
2022-12-18T01:47:37.295Z,97194.91
2022-12-18T01:50:15.193Z,97197.53
2022-12-18T01:52:54.079Z,97202.81
2022-12-18T01:55:30.040Z,97205.47
2022-12-18T01:58:03.267Z,97203.88
2022-12-18T02:00:36.301Z,97209.94
2022-12-18T02:03:09.189Z,97204.66
2022-12-18T02:05:49.138Z,97194.91
2022-12-18T02:08:28.618Z,97191.22
2022-12-18T02:11:09.497Z,97199.69
2022-12-18T02:13:48.684Z,97204.41
2022-12-18T02:16:26.069Z,97203.63
2022-12-18T02:19:02.676Z,97201.22
2022-12-18T02:21:48.245Z,97197.00
2022-12-18T02:24:32.800Z,97195.94
2022-12-18T02:27:08.778Z,97196.47
2022-12-18T02:29:46.381Z,97198.31
2022-12-18T02:32:25.420Z,97203.03
2022-12-18T02:34:59.440Z,97207.75
2022-12-18T02:37:34.595Z,97207.22
2022-12-18T02:40:09.902Z,97207.22
2022-12-18T02:42:44.133Z,97200.09
2022-12-18T02:45:17.162Z,97191.13
2022-12-18T02:47:52.176Z,97195.38
2022-12-18T02:50:33.449Z,97204.09
2022-12-18T02:53:15.939Z,97209.59
2022-12-18T02:55:58.282Z,97201.19
2022-12-18T02:58:42.447Z,97214.38
2022-12-18T03:01:21.241Z,97217.28
2022-12-18T03:03:58.724Z,97224.38
2022-12-18T03:06:37.102Z,97224.34
2022-12-18T03:09:12.896Z,97228.28
2022-12-18T03:12:08.097Z,97218.78
2022-12-18T03:14:45.314Z,97209.50
2022-12-18T03:17:22.761Z,97209.22
2022-12-18T03:19:59.179Z,97218.44
2022-12-18T03:22:35.428Z,97226.09
2022-12-18T03:25:11.672Z,97222.13
2022-12-18T03:27:48.538Z,97226.59
2022-12-18T03:30:23.271Z,97233.69
2022-12-18T03:33:03.926Z,97221.31
2022-12-18T03:35:41.415Z,97222.63
2022-12-18T03:38:14.968Z,97239.75
2022-12-18T03:40:58.732Z,97242.38
2022-12-18T03:43:42.638Z,97244.22
2022-12-18T03:46:25.222Z,97246.28
2022-12-18T03:49:07.911Z,97249.72
2022-12-18T03:51:48.195Z,97242.88
2022-12-18T03:54:21.888Z,97245.22
2022-12-18T03:57:02.927Z,97252.84
2022-12-18T03:59:37.440Z,97253.38
2022-12-18T04:02:12.599Z,97254.97
2022-12-18T04:04:49.348Z,97259.13
2022-12-18T04:07:23.440Z,97251.97
2022-12-18T04:10:00.121Z,97259.09
2022-12-18T04:12:33.039Z,97256.38
2022-12-18T04:15:06.952Z,97259.81
2022-12-18T04:17:45.401Z,97258.22
2022-12-18T04:20:19.171Z,97257.69
2022-12-18T04:22:51.938Z,97263.72
2022-12-18T04:25:24.834Z,97271.91
2022-12-18T04:27:57.965Z,97265.84
2022-12-18T04:30:30.768Z,97278.50
2022-12-18T04:33:04.950Z,97275.88
2022-12-18T04:35:37.725Z,97282.75
2022-12-18T04:38:11.913Z,97283.53
2022-12-18T04:40:45.365Z,97290.41
2022-12-18T04:43:18.259Z,97289.13
2022-12-18T04:45:51.197Z,97296.78
2022-12-18T04:48:25.658Z,97291.53
2022-12-18T04:50:58.470Z,97296.78
2022-12-18T04:53:31.382Z,97298.38
2022-12-18T04:56:06.296Z,97294.44
2022-12-18T04:58:40.099Z,97293.41
2022-12-18T05:01:14.640Z,97290.75
2022-12-18T05:03:49.581Z,97283.41
2022-12-18T05:06:22.662Z,97281.56
2022-12-18T05:08:55.472Z,97287.13
2022-12-18T05:11:28.454Z,97278.19
2022-12-18T05:14:01.218Z,97270.81
2022-12-18T05:16:34.007Z,97273.47
2022-12-18T05:19:08.540Z,97280.88
2022-12-18T05:21:41.309Z,97288.81
2022-12-18T05:24:14.150Z,97289.59
2022-12-18T05:26:47.060Z,97295.66
2022-12-18T05:29:19.972Z,97297.50
2022-12-18T05:31:52.898Z,97298.56
2022-12-18T05:34:27.147Z,97310.13
2022-12-18T05:37:00.012Z,97307.97
2022-12-18T05:39:32.764Z,97306.16
2022-12-18T05:42:05.691Z,97319.34
2022-12-18T05:44:38.526Z,97312.22
2022-12-18T05:47:11.541Z,97315.66
2022-12-18T05:49:45.769Z,97315.91
2022-12-18T05:52:18.611Z,97317.72
2022-12-18T05:54:51.487Z,97315.91
2022-12-18T05:57:24.303Z,97312.47
2022-12-18T05:59:57.156Z,97312.22
2022-12-18T06:02:30.044Z,97312.78
2022-12-18T06:05:04.596Z,97311.72
2022-12-18T06:07:37.391Z,97311.72
2022-12-18T06:10:10.480Z,97315.41
2022-12-18T06:12:43.314Z,97317.50
2022-12-18T06:15:16.302Z,97310.63
2022-12-18T06:17:49.983Z,97314.31
2022-12-18T06:20:26.905Z,97324.03
2022-12-18T06:23:03.305Z,97326.41
2022-12-18T06:25:38.794Z,97331.13
2022-12-18T06:28:11.546Z,97329.75
2022-12-18T06:30:45.473Z,97332.66
2022-12-18T06:33:19.040Z,97329.72
2022-12-18T06:35:56.548Z,97334.97
2022-12-18T06:38:33.600Z,97331.00
2022-12-18T06:41:09.114Z,97333.16
2022-12-18T06:43:42.568Z,97336.03
2022-12-18T06:46:17.023Z,97337.84
2022-12-18T06:48:51.281Z,97341.53
2022-12-18T06:51:26.692Z,97343.38
2022-12-18T06:53:59.644Z,97353.13
2022-12-18T06:56:32.723Z,97355.22
2022-12-18T06:59:05.516Z,97362.34
2022-12-18T07:01:38.573Z,97367.28
2022-12-18T07:04:11.519Z,97376.78
2022-12-18T07:06:45.772Z,97369.91
2022-12-18T07:09:18.605Z,97382.28
2022-12-18T07:11:51.383Z,97387.00
2022-12-18T07:14:24.253Z,97385.41
2022-12-18T07:16:57.114Z,97386.72
2022-12-18T07:19:30.087Z,97388.31
2022-12-18T07:22:05.346Z,97393.59
2022-12-18T07:24:39.384Z,97393.81
2022-12-18T07:27:12.264Z,97398.53
2022-12-18T07:29:45.064Z,97405.63
2022-12-18T07:32:18.232Z,97410.13
2022-12-18T07:34:51.225Z,97410.91
2022-12-18T07:37:25.475Z,97407.47
2022-12-18T07:39:58.354Z,97404.59
2022-12-18T07:42:33.971Z,97405.69
2022-12-18T07:45:07.794Z,97400.28
2022-12-18T07:47:42.231Z,97399.53
2022-12-18T07:50:15.261Z,97395.94
2022-12-18T07:52:49.764Z,97401.03
2022-12-18T07:55:22.543Z,97404.28
2022-12-18T07:58:00.726Z,97400.88
2022-12-18T08:00:33.901Z,97409.97
2022-12-18T08:03:06.794Z,97410.03
2022-12-18T08:05:39.786Z,97414.09
2022-12-18T08:08:14.056Z,97420.22
2022-12-18T08:10:48.203Z,97415.50
2022-12-18T08:13:21.257Z,97426.34
2022-12-18T08:16:02.401Z,97431.44
2022-12-18T08:18:35.835Z,97430.69
2022-12-18T08:21:12.652Z,97429.41
2022-12-18T08:23:47.508Z,97426.28
2022-12-18T08:26:22.091Z,97428.41
2022-12-18T08:28:56.502Z,97436.63
2022-12-18T08:31:31.418Z,97438.22
2022-12-18T08:34:04.423Z,97442.19
2022-12-18T08:36:37.456Z,97442.50
2022-12-18T08:39:12.294Z,97435.94
2022-12-18T08:42:09.863Z,97428.59
2022-12-18T08:44:42.223Z,97431.75
2022-12-18T08:47:15.110Z,97439.19
2022-12-18T08:49:47.945Z,97435.50
2022-12-18T08:52:20.720Z,97443.69
2022-12-18T08:54:54.843Z,97444.81
2022-12-18T08:57:27.660Z,97437.69
2022-12-18T09:00:00.498Z,97434.28
2022-12-18T09:02:33.456Z,97425.31
2022-12-18T09:05:07.229Z,97409.78
2022-12-18T09:07:40.044Z,97415.91
2022-12-18T09:10:14.349Z,97415.16
2022-12-18T09:12:47.137Z,97408.31
2022-12-18T09:15:21.073Z,97412.59
2022-12-18T09:17:54.941Z,97405.75
2022-12-18T09:20:29.403Z,97402.09
2022-12-18T09:23:02.189Z,97410.06
2022-12-18T09:25:37.874Z,97412.25
2022-12-18T09:28:13.878Z,97406.19
2022-12-18T09:30:48.335Z,97403.59
2022-12-18T09:33:21.232Z,97407.59
2022-12-18T09:35:54.112Z,97412.41
2022-12-18T09:38:26.983Z,97416.66
2022-12-18T09:41:06.888Z,97417.78
2022-12-18T09:43:45.986Z,97415.69
2022-12-18T09:46:26.519Z,97411.78
2022-12-18T09:49:03.403Z,97415.53
2022-12-18T09:51:39.610Z,97424.28
2022-12-18T09:54:16.362Z,97420.63
2022-12-18T09:56:50.698Z,97424.34
2022-12-18T09:59:27.526Z,97421.72
2022-12-18T10:02:01.523Z,97423.06
2022-12-18T10:04:35.177Z,97420.41
2022-12-18T10:07:17.121Z,97417.25
2022-12-18T10:09:52.911Z,97424.16
2022-12-18T10:12:35.315Z,97419.91
2022-12-18T10:15:13.926Z,97417.81
2022-12-18T10:17:53.870Z,97417.56
2022-12-18T10:20:34.236Z,97424.44
2022-12-18T10:23:21.049Z,97417.56
2022-12-18T10:26:01.915Z,97413.06
2022-12-18T10:28:38.937Z,97413.84
2022-12-18T10:31:18.125Z,97418.09
2022-12-18T10:33:51.369Z,97423.91
2022-12-18T10:36:25.906Z,97424.19
2022-12-18T10:39:17.694Z,97427.91
2022-12-18T10:41:50.811Z,97430.03
2022-12-18T10:44:27.197Z,97427.94
2022-12-18T10:47:11.689Z,97428.72
2022-12-18T10:49:56.087Z,97433.50
2022-12-18T10:52:29.653Z,97440.91
2022-12-18T10:55:06.144Z,97433.25
2022-12-18T10:57:41.488Z,97438.84
2022-12-18T11:00:30.681Z,97430.09
2022-12-18T11:03:03.700Z,97429.84
2022-12-18T11:05:38.037Z,97428.22
2022-12-18T11:08:23.745Z,97426.16
2022-12-18T11:10:56.621Z,97421.09
2022-12-18T11:13:32.053Z,97426.13
2022-12-18T11:16:06.708Z,97421.13
2022-12-18T11:18:40.102Z,97421.94
2022-12-18T11:21:15.608Z,97423.28
2022-12-18T11:23:52.779Z,97416.09
2022-12-18T11:26:37.169Z,97401.28
2022-12-18T11:29:12.561Z,97407.91
2022-12-18T11:31:46.870Z,97403.66
2022-12-18T11:34:29.487Z,97395.97
2022-12-18T11:37:05.949Z,97386.41
2022-12-18T11:39:41.714Z,97381.38
2022-12-18T11:42:22.205Z,97383.75
2022-12-18T11:44:59.452Z,97382.16
2022-12-18T11:47:43.697Z,97380.28
2022-12-18T11:50:20.427Z,97365.44
2022-12-18T11:52:58.195Z,97358.78
2022-12-18T11:55:43.567Z,97362.22
2022-12-18T11:58:44.553Z,97368.56
2022-12-18T12:01:41.977Z,97370.44
2022-12-18T12:04:35.880Z,97371.72
2022-12-18T12:07:23.377Z,97377.56
2022-12-18T12:10:05.421Z,97374.38
2022-12-18T12:12:52.437Z,97379.44
2022-12-18T12:15:38.968Z,97384.16
2022-12-18T12:18:26.901Z,97387.63
2022-12-18T12:21:09.476Z,97374.09
2022-12-18T12:23:48.112Z,97378.06
2022-12-18T12:26:29.732Z,97367.19
2022-12-18T12:29:16.618Z,97368.47
2022-12-18T12:32:06.476Z,97367.44
2022-12-18T12:34:46.313Z,97359.19
2022-12-18T12:37:32.372Z,97353.34
2022-12-18T12:40:26.830Z,97345.38
2022-12-18T12:43:13.766Z,97342.44
2022-12-18T12:45:51.541Z,97348.53
2022-12-18T12:48:36.535Z,97349.06
2022-12-18T12:51:18.307Z,97349.63
2022-12-18T12:53:55.628Z,97353.84
2022-12-18T12:56:42.106Z,97337.13
2022-12-18T12:59:21.294Z,97344.31
2022-12-18T13:02:01.758Z,97340.88
2022-12-18T13:04:42.051Z,97336.09
2022-12-18T13:07:18.242Z,97329.47
2022-12-18T13:10:17.550Z,97339.28
2022-12-18T13:12:59.261Z,97341.19
2022-12-18T13:15:40.030Z,97343.56
2022-12-18T13:18:19.204Z,97350.75
2022-12-18T13:21:05.700Z,97347.34
2022-12-18T13:23:42.981Z,97347.88
2022-12-18T13:26:36.294Z,97350.56
2022-12-18T13:29:09.468Z,97353.47
2022-12-18T13:32:23.257Z,97353.47
2022-12-18T13:35:40.378Z,97351.91
2022-12-18T13:38:24.915Z,97351.38
2022-12-18T13:40:59.684Z,97346.34
2022-12-18T13:43:38.295Z,97337.56
2022-12-18T13:46:26.437Z,97340.50
2022-12-18T13:49:07.758Z,97344.75
2022-12-18T13:51:43.844Z,97338.63
2022-12-18T13:54:24.454Z,97348.72
2022-12-18T13:56:57.397Z,97347.13
2022-12-18T13:59:38.071Z,97343.69
2022-12-18T14:02:16.646Z,97336.53
2022-12-18T14:04:51.567Z,97339.16
2022-12-18T14:07:26.262Z,97339.16
2022-12-18T14:10:12.562Z,97334.94
2022-12-18T14:13:00.934Z,97356.69
2022-12-18T14:15:41.248Z,97354.03
2022-12-18T14:18:23.930Z,97356.16
2022-12-18T14:20:59.577Z,97361.19
2022-12-18T14:23:35.441Z,97358.31
2022-12-18T14:26:24.933Z,97357.25
2022-12-18T14:28:57.778Z,97358.31
2022-12-18T14:31:33.393Z,97357.28
2022-12-18T14:34:06.305Z,97351.44
2022-12-18T14:36:40.904Z,97346.16
2022-12-18T14:39:19.688Z,97346.66
2022-12-18T14:41:52.705Z,97343.22
2022-12-18T14:44:28.578Z,97350.09
2022-12-18T14:47:16.532Z,97346.94
2022-12-18T14:49:50.060Z,97356.72
2022-12-18T14:52:29.421Z,97355.13
2022-12-18T14:55:02.344Z,97353.00
2022-12-18T14:57:41.378Z,97356.19
2022-12-18T15:00:19.569Z,97354.31
2022-12-18T15:02:56.854Z,97348.78
2022-12-18T15:05:31.542Z,97345.06
2022-12-18T15:08:04.924Z,97349.56
2022-12-18T15:10:49.895Z,97346.13
2022-12-18T15:13:25.443Z,97346.63
2022-12-18T15:16:00.371Z,97346.59
2022-12-18T15:18:43.680Z,97346.34
2022-12-18T15:21:20.207Z,97347.38
2022-12-18T15:23:54.604Z,97343.94
2022-12-18T15:26:27.806Z,97346.59
2022-12-18T15:29:02.778Z,97343.38
2022-12-18T15:31:37.349Z,97350.00
2022-12-18T15:34:21.704Z,97346.81
2022-12-18T15:36:54.799Z,97341.78
2022-12-18T15:39:28.947Z,97340.44
2022-12-18T15:42:20.962Z,97343.06
2022-12-18T15:44:53.661Z,97351.00
2022-12-18T15:47:29.416Z,97356.31
2022-12-18T15:50:04.301Z,97361.59
2022-12-18T15:52:42.332Z,97355.75
2022-12-18T15:55:34.614Z,97351.22
2022-12-18T15:58:10.438Z,97352.03
2022-12-18T16:00:43.730Z,97354.66
2022-12-18T16:03:18.457Z,97357.00
2022-12-18T16:05:52.720Z,97358.06
2022-12-18T16:08:25.512Z,97364.09
2022-12-18T16:10:58.994Z,97358.00
2022-12-18T16:13:31.923Z,97362.72
2022-12-18T16:16:04.950Z,97354.47
2022-12-18T16:18:37.867Z,97360.28
2022-12-18T16:21:12.474Z,97365.25
2022-12-18T16:23:46.843Z,97364.19
2022-12-18T16:26:19.837Z,97356.50
2022-12-18T16:28:54.189Z,97365.97
2022-12-18T16:31:27.139Z,97361.47
2022-12-18T16:34:13.038Z,97366.19
2022-12-18T16:36:47.587Z,97356.91
2022-12-18T16:39:20.592Z,97366.13
2022-12-18T16:41:53.615Z,97365.81
2022-12-18T16:44:27.239Z,97369.53
2022-12-18T16:47:02.925Z,97362.09
2022-12-18T16:49:36.222Z,97370.53
2022-12-18T16:52:11.035Z,97361.00
2022-12-18T16:54:44.232Z,97361.78
2022-12-18T16:57:18.937Z,97357.53
2022-12-18T16:59:51.966Z,97349.59
2022-12-18T17:02:27.368Z,97349.03
2022-12-18T17:05:01.339Z,97345.84
2022-12-18T17:07:36.196Z,97348.47
2022-12-18T17:10:12.843Z,97346.34
2022-12-18T17:12:45.690Z,97344.22
2022-12-18T17:15:18.896Z,97343.13
2022-12-18T17:17:52.902Z,97335.16
2022-12-18T17:20:26.529Z,97335.66
2022-12-18T17:23:01.292Z,97345.66
2022-12-18T17:25:35.673Z,97348.59
2022-12-18T17:28:08.575Z,97349.88
2022-12-18T17:30:44.412Z,97352.50
2022-12-18T17:33:17.253Z,97358.84
2022-12-18T17:35:50.358Z,97351.41
2022-12-18T17:38:24.771Z,97359.31
2022-12-18T17:41:02.085Z,97363.56
2022-12-18T17:43:36.231Z,97363.00
2022-12-18T17:46:09.203Z,97355.59
2022-12-18T17:48:42.904Z,97340.81
2022-12-18T17:51:17.005Z,97334.72
2022-12-18T17:53:51.583Z,97333.13
2022-12-18T17:56:26.082Z,97338.66
2022-12-18T17:59:00.561Z,97331.53
2022-12-18T18:01:42.423Z,97335.78
2022-12-18T18:04:17.346Z,97338.41
2022-12-18T18:06:50.423Z,97335.78
2022-12-18T18:09:27.270Z,97333.13
2022-12-18T18:12:17.422Z,97331.28
2022-12-18T18:14:50.656Z,97337.13
2022-12-18T18:17:26.114Z,97347.69
2022-12-18T18:19:58.989Z,97345.03
2022-12-18T18:22:32.196Z,97348.50
2022-12-18T18:25:10.707Z,97361.16
2022-12-18T18:27:44.109Z,97362.47
2022-12-18T18:30:20.029Z,97368.28
2022-12-18T18:32:53.049Z,97372.00
2022-12-18T18:35:52.957Z,97364.06
2022-12-18T18:38:20.389Z,97359.84
2022-12-18T18:41:00.705Z,97350.09
2022-12-18T18:43:33.776Z,97359.53
2022-12-18T18:46:07.576Z,97361.91
2022-12-18T18:48:42.373Z,97365.81
2022-12-18T18:51:21.100Z,97355.50
2022-12-18T18:53:55.224Z,97360.22
2022-12-18T18:59:23.613Z,97354.16
2022-12-18T19:02:05.403Z,97334.88
2022-12-18T19:04:45.695Z,97341.19
2022-12-18T19:07:29.955Z,97334.09
2022-12-18T19:10:05.407Z,97344.94
2022-12-18T19:12:54.011Z,97339.97
2022-12-18T19:15:26.948Z,97325.47
2022-12-18T19:18:00.173Z,97312.03
2022-12-18T19:20:33.341Z,97321.84
2022-12-18T19:23:06.203Z,97326.06
2022-12-18T19:25:41.641Z,97336.13
2022-12-18T19:28:22.070Z,97326.66
2022-12-18T19:30:59.324Z,97324.53
2022-12-18T19:33:43.155Z,97317.19
2022-12-18T19:36:21.227Z,97328.84
2022-12-18T19:38:56.395Z,97339.41
2022-12-18T19:41:31.133Z,97350.50
2022-12-18T19:44:08.703Z,97335.75
2022-12-18T19:46:42.436Z,97325.44
2022-12-18T19:49:18.241Z,97319.34
2022-12-18T19:51:51.612Z,97319.09
2022-12-18T19:54:24.472Z,97314.06
2022-12-18T19:57:00.861Z,97319.09
2022-12-18T19:59:35.829Z,97319.91
2022-12-18T20:02:14.359Z,97315.41
2022-12-18T20:04:47.616Z,97302.47
2022-12-18T20:07:20.434Z,97317.25
2022-12-18T20:09:59.539Z,97314.63
2022-12-18T20:12:36.995Z,97307.19
2022-12-18T20:15:13.164Z,97297.19
2022-12-18T20:17:46.051Z,97286.63
2022-12-18T20:20:19.226Z,97290.06
2022-12-18T20:22:52.339Z,97298.78
2022-12-18T20:25:25.305Z,97314.38
2022-12-18T20:27:58.501Z,97300.38
2022-12-18T20:30:43.669Z,97303.28
2022-12-18T20:33:16.890Z,97309.66
2022-12-18T20:35:49.812Z,97301.16
2022-12-18T20:38:23.575Z,97307.50
2022-12-18T20:41:08.197Z,97308.84
2022-12-18T20:43:41.353Z,97299.03
2022-12-18T20:46:17.634Z,97310.38
2022-12-18T20:48:51.029Z,97315.63
2022-12-18T20:51:24.102Z,97313.00
2022-12-18T20:53:59.587Z,97308.75
2022-12-18T20:56:32.400Z,97299.50
2022-12-18T20:59:05.593Z,97293.94
2022-12-18T21:01:41.526Z,97301.56
2022-12-18T21:04:22.865Z,97302.03
2022-12-18T21:07:02.446Z,97300.44
2022-12-18T21:09:38.119Z,97280.91
2022-12-18T21:12:34.883Z,97294.09
2022-12-18T21:15:13.384Z,97281.94
2022-12-18T21:17:47.684Z,97286.19
2022-12-18T21:20:20.601Z,97283.28
2022-12-18T21:22:54.081Z,97292.81
2022-12-18T21:25:30.507Z,97291.25
2022-12-18T21:28:03.407Z,97296.81
2022-12-18T21:30:36.557Z,97300.00
2022-12-18T21:33:10.901Z,97301.34
2022-12-18T21:35:43.745Z,97309.00
2022-12-18T21:38:17.032Z,97305.88
2022-12-18T21:40:50.080Z,97309.84
2022-12-18T21:43:40.744Z,97300.06
2022-12-18T21:46:14.014Z,97302.78
2022-12-18T21:48:48.378Z,97286.41
2022-12-18T21:51:21.367Z,97307.28
2022-12-18T21:53:54.208Z,97305.44
2022-12-18T21:56:43.370Z,97295.41
2022-12-18T21:59:18.397Z,97294.13
2022-12-18T22:01:52.918Z,97297.03
2022-12-18T22:04:27.887Z,97293.09
2022-12-18T22:07:02.593Z,97289.41
2022-12-18T22:09:35.624Z,97289.97
2022-12-18T22:12:09.250Z,97299.19
2022-12-18T22:14:42.082Z,97285.50
2022-12-18T22:17:14.991Z,97285.25
2022-12-18T22:19:51.174Z,97283.16
2022-12-18T22:22:24.028Z,97284.22
2022-12-18T22:24:56.988Z,97277.63
2022-12-18T22:27:29.801Z,97258.09
2022-12-18T22:30:04.845Z,97258.34
2022-12-18T22:32:37.689Z,97262.34
2022-12-18T22:35:15.781Z,97265.28
2022-12-18T22:37:48.860Z,97276.63
2022-12-18T22:40:25.395Z,97273.72
2022-12-18T22:42:58.844Z,97279.81
2022-12-18T22:45:31.716Z,97265.28
2022-12-18T22:48:07.392Z,97268.22
2022-12-18T22:50:41.995Z,97268.75
2022-12-18T22:53:15.086Z,97264.50
2022-12-18T22:55:48.029Z,97266.09
2022-12-18T22:58:20.848Z,97263.75
2022-12-18T23:00:53.742Z,97257.41
2022-12-18T23:03:26.845Z,97253.72
2022-12-18T23:06:05.999Z,97268.25
2022-12-18T23:08:38.823Z,97273.53
2022-12-18T23:11:12.664Z,97257.97
2022-12-18T23:13:46.485Z,97274.63
2022-12-18T23:16:21.054Z,97268.84
2022-12-18T23:18:56.571Z,97260.09
2022-12-18T23:21:30.897Z,97279.13
2022-12-18T23:24:05.440Z,97269.34
2022-12-18T23:26:38.914Z,97276.22
2022-12-18T23:29:11.696Z,97279.66
2022-12-18T23:31:44.808Z,97267.50
2022-12-18T23:34:18.134Z,97272.78
2022-12-18T23:36:56.015Z,97260.38
2022-12-18T23:39:30.385Z,97272.00
2022-12-18T23:42:04.707Z,97266.97
2022-12-18T23:44:39.014Z,97265.91
2022-12-18T23:47:12.138Z,97257.72
2022-12-18T23:49:45.067Z,97265.41
2022-12-18T23:52:19.261Z,97264.59
2022-12-18T23:54:53.653Z,97257.47
2022-12-18T23:57:26.515Z,97267.53
